createdAt,value
2024-01-04T00:01:36.956Z,7.40
2024-01-04T00:04:04.154Z,5.55
2024-01-04T00:06:31.297Z,4.63
2024-01-04T00:08:58.496Z,5.55
2024-01-04T00:11:25.562Z,5.53
2024-01-04T00:13:52.930Z,6.38
2024-01-04T00:16:20.195Z,6.38
2024-01-04T00:18:47.520Z,9.45
2024-01-04T00:21:15.486Z,3.15
2024-01-04T00:23:42.782Z,8.60
2024-01-04T00:26:09.930Z,7.50
2024-01-04T00:28:40.774Z,4.50
2024-01-04T00:31:08.481Z,2.40
2024-01-04T00:33:36.504Z,3.83
2024-01-04T00:36:03.917Z,9.55
2024-01-04T00:38:31.076Z,3.88
2024-01-04T00:40:58.183Z,5.15
2024-01-04T00:43:25.302Z,4.38
2024-01-04T00:45:52.884Z,6.72
2024-01-04T00:48:20.463Z,3.83
2024-01-04T00:50:47.649Z,6.90
2024-01-04T00:53:14.815Z,6.25
2024-01-04T00:55:42.246Z,7.57
2024-01-04T00:58:09.455Z,3.42
2024-01-04T01:00:37.445Z,6.07
2024-01-04T01:03:04.978Z,6.75
2024-01-04T01:05:32.244Z,2.75
2024-01-04T01:07:59.432Z,6.18
2024-01-04T01:10:27.842Z,7.00
2024-01-04T01:12:55.026Z,8.05
2024-01-04T01:15:22.954Z,4.95
2024-01-04T01:17:51.491Z,8.85
2024-01-04T01:20:19.277Z,5.20
2024-01-04T01:22:46.475Z,9.27
2024-01-04T01:25:13.590Z,5.97
2024-01-04T01:27:40.774Z,6.57
2024-01-04T01:30:09.208Z,7.30
2024-01-04T01:32:36.448Z,5.05
2024-01-04T01:35:03.750Z,13.18
2024-01-04T01:37:30.959Z,11.45
2024-01-04T01:39:58.047Z,9.13
2024-01-04T01:42:25.241Z,7.95
2024-01-04T01:44:55.193Z,8.98
2024-01-04T01:47:25.938Z,9.85
2024-01-04T01:49:53.985Z,5.53
2024-01-04T01:52:22.346Z,7.78
2024-01-04T01:54:50.565Z,5.47
2024-01-04T01:57:18.139Z,7.45
2024-01-04T01:59:46.122Z,3.92
2024-01-04T02:02:14.242Z,7.72
2024-01-04T02:04:41.429Z,3.55
2024-01-04T02:07:09.267Z,8.05
2024-01-04T02:09:36.577Z,7.30
2024-01-04T02:12:08.253Z,8.38
2024-01-04T02:14:35.905Z,8.10
2024-01-04T02:17:03.166Z,5.10
2024-01-04T02:19:31.661Z,5.47
2024-01-04T02:21:59.522Z,5.07
2024-01-04T02:24:27.121Z,7.28
2024-01-04T02:26:54.449Z,5.22
2024-01-04T02:29:21.741Z,7.50
2024-01-04T02:31:50.382Z,6.72
2024-01-04T02:34:17.832Z,6.50
2024-01-04T02:36:45.271Z,5.25
2024-01-04T02:39:13.021Z,6.38
2024-01-04T02:41:41.255Z,8.50
2024-01-04T02:44:11.031Z,8.35
2024-01-04T02:46:39.934Z,6.80
2024-01-04T02:49:07.273Z,3.40
2024-01-04T02:51:34.529Z,7.65
2024-01-04T02:54:02.121Z,3.90
2024-01-04T02:56:31.280Z,7.78
2024-01-04T02:58:59.972Z,3.92
2024-01-04T03:01:27.049Z,6.45
2024-01-04T03:03:56.902Z,8.90
2024-01-04T03:06:26.082Z,4.85
2024-01-04T03:08:53.649Z,6.78
2024-01-04T03:11:21.353Z,5.10
2024-01-04T03:13:48.491Z,4.90
2024-01-04T03:16:16.097Z,5.43
2024-01-04T03:18:43.536Z,5.25
2024-01-04T03:21:11.084Z,6.40
2024-01-04T03:23:38.302Z,3.25
2024-01-04T03:26:05.982Z,3.80
2024-01-04T03:28:33.468Z,8.00
2024-01-04T03:31:00.752Z,2.80
2024-01-04T03:33:28.063Z,3.97
2024-01-04T03:35:55.391Z,7.18
2024-01-04T03:38:22.537Z,2.35
2024-01-04T03:40:49.656Z,2.97
2024-01-04T03:43:16.887Z,2.40
2024-01-04T03:45:44.110Z,5.68
2024-01-04T03:48:11.447Z,6.22
2024-01-04T03:50:39.070Z,4.13
2024-01-04T03:53:06.235Z,5.95
2024-01-04T03:55:33.327Z,5.90
2024-01-04T03:58:00.510Z,5.10
2024-01-04T04:00:29.645Z,4.90
2024-01-04T04:02:56.916Z,6.50
2024-01-04T04:05:24.057Z,3.67
2024-01-04T04:07:51.286Z,2.35
2024-01-04T04:10:18.405Z,2.92
2024-01-04T04:12:45.846Z,6.35
2024-01-04T04:15:13.065Z,5.75
2024-01-04T04:17:40.341Z,4.88
2024-01-04T04:20:07.763Z,4.22
2024-01-04T04:22:35.506Z,2.85
2024-01-04T04:25:02.727Z,7.88
2024-01-04T04:27:30.062Z,2.97
2024-01-04T04:29:57.281Z,4.05
2024-01-04T04:32:24.578Z,2.58
2024-01-04T04:34:51.922Z,4.47
2024-01-04T04:37:19.027Z,4.07
2024-01-04T04:39:46.445Z,3.78
2024-01-04T04:42:13.677Z,3.88
2024-01-04T04:44:40.965Z,2.03
2024-01-04T04:47:08.323Z,5.07
2024-01-04T04:49:35.628Z,4.53
2024-01-04T04:52:03.582Z,2.65
2024-01-04T04:54:30.931Z,3.72
2024-01-04T04:56:58.253Z,3.17
2024-01-04T04:59:25.463Z,7.07
2024-01-04T05:01:52.802Z,5.93
2024-01-04T05:04:20.052Z,3.65
2024-01-04T05:06:47.309Z,5.00
2024-01-04T05:09:14.600Z,6.35
2024-01-04T05:11:41.886Z,6.68
2024-01-04T05:14:09.010Z,6.97
2024-01-04T05:16:36.197Z,5.50
2024-01-04T05:19:03.661Z,4.80
2024-01-04T05:21:36.733Z,5.07
2024-01-04T05:24:04.140Z,5.18
2024-01-04T05:26:31.977Z,5.78
2024-01-04T05:28:59.091Z,7.40
2024-01-04T05:31:27.002Z,6.25
2024-01-04T05:33:54.435Z,10.32
2024-01-04T05:36:22.079Z,10.00
2024-01-04T05:38:49.375Z,10.20
2024-01-04T05:41:16.567Z,9.52
2024-01-04T05:43:43.664Z,9.00
2024-01-04T05:46:10.803Z,13.68
2024-01-04T05:48:38.077Z,8.82
2024-01-04T05:51:05.484Z,6.78
2024-01-04T05:53:32.717Z,8.00
2024-01-04T05:55:59.929Z,13.40
2024-01-04T05:58:27.083Z,13.43
2024-01-04T06:00:54.291Z,15.45
2024-01-04T06:03:21.645Z,13.15
2024-01-04T06:05:48.814Z,9.60
2024-01-04T06:08:15.988Z,10.38
2024-01-04T06:10:43.259Z,9.25
2024-01-04T06:13:10.975Z,6.93
2024-01-04T06:15:38.091Z,10.55
2024-01-04T06:18:05.428Z,6.13
2024-01-04T06:20:32.626Z,6.97
2024-01-04T06:22:59.718Z,4.30
2024-01-04T06:25:28.577Z,3.67
2024-01-04T06:27:55.815Z,2.90
2024-01-04T06:30:25.963Z,5.28
2024-01-04T06:32:54.214Z,6.28
2024-01-04T06:35:21.578Z,6.63
2024-01-04T06:37:48.784Z,10.23
2024-01-04T06:40:17.163Z,4.72
2024-01-04T06:42:46.238Z,8.60
2024-01-04T06:45:13.472Z,6.88
2024-01-04T06:47:40.817Z,5.32
2024-01-04T06:50:15.345Z,5.30
2024-01-04T06:52:46.037Z,6.03
2024-01-04T06:55:16.873Z,5.80
2024-01-04T06:57:43.997Z,6.95
2024-01-04T07:00:12.026Z,5.18
2024-01-04T07:02:39.999Z,6.65
2024-01-04T07:05:08.211Z,5.22
2024-01-04T07:07:36.257Z,7.05
2024-01-04T07:10:04.342Z,5.13
2024-01-04T07:12:34.010Z,4.60
2024-01-04T07:15:01.332Z,4.93
2024-01-04T07:17:28.512Z,6.25
2024-01-04T07:19:55.682Z,9.65
2024-01-04T07:22:22.958Z,8.25
2024-01-04T07:24:50.728Z,7.57
2024-01-04T07:27:18.164Z,6.10
2024-01-04T07:29:45.499Z,5.32
2024-01-04T07:32:13.109Z,5.25
2024-01-04T07:34:40.858Z,8.05
2024-01-04T07:37:08.638Z,7.82
2024-01-04T07:39:36.071Z,6.03
2024-01-04T07:42:03.561Z,6.38
2024-01-04T07:44:32.260Z,4.40
2024-01-04T07:46:59.547Z,8.25
2024-01-04T07:49:26.827Z,4.35
2024-01-04T07:51:54.518Z,4.93
2024-01-04T07:54:22.419Z,8.02
2024-01-04T07:56:50.240Z,8.90
2024-01-04T07:59:17.447Z,4.18
2024-01-04T08:01:44.686Z,7.05
2024-01-04T08:04:12.086Z,7.32
2024-01-04T08:06:39.474Z,6.88
2024-01-04T08:09:09.790Z,4.15
2024-01-04T08:11:36.947Z,7.07
2024-01-04T08:14:04.139Z,5.35
2024-01-04T08:16:32.681Z,5.95
2024-01-04T08:19:04.738Z,4.82
2024-01-04T08:21:35.061Z,5.97
2024-01-04T08:24:04.873Z,2.80
2024-01-04T08:26:35.163Z,5.50
2024-01-04T08:29:02.569Z,4.82
2024-01-04T08:31:33.761Z,3.97
2024-01-04T08:34:01.195Z,6.32
2024-01-04T08:36:28.443Z,6.95
2024-01-04T08:38:55.814Z,5.40
2024-01-04T08:41:22.945Z,8.55
2024-01-04T08:43:50.332Z,3.17
2024-01-04T08:46:17.721Z,3.83
2024-01-04T08:48:45.010Z,6.65
2024-01-04T08:51:12.384Z,8.23
2024-01-04T08:53:39.531Z,4.43
2024-01-04T08:56:15.416Z,7.68
2024-01-04T08:58:42.803Z,4.10
2024-01-04T09:01:09.999Z,5.55
2024-01-04T09:03:37.267Z,6.00
2024-01-04T09:06:08.062Z,5.10
2024-01-04T09:08:37.068Z,4.78
2024-01-04T09:11:07.933Z,5.25
2024-01-04T09:13:35.054Z,13.68
2024-01-04T09:16:06.279Z,5.05
2024-01-04T09:18:37.206Z,7.15
2024-01-04T09:21:05.087Z,6.93
2024-01-04T09:23:32.208Z,4.75
2024-01-04T09:25:59.345Z,6.70
2024-01-04T09:28:28.468Z,6.93
2024-01-04T09:30:57.857Z,3.80
2024-01-04T09:33:27.436Z,8.57
2024-01-04T09:35:54.924Z,11.43
2024-01-04T09:38:24.702Z,4.72
2024-01-04T09:40:53.293Z,2.58
2024-01-04T09:43:21.697Z,5.60
2024-01-04T09:45:49.840Z,3.58
2024-01-04T09:48:28.955Z,3.95
2024-01-04T09:50:59.702Z,4.45
2024-01-04T09:53:28.223Z,3.75
2024-01-04T09:55:58.041Z,5.45
2024-01-04T09:58:28.056Z,2.00
2024-01-04T10:00:57.844Z,2.90
2024-01-04T10:03:27.106Z,4.20
2024-01-04T10:05:57.369Z,1.80
2024-01-04T10:08:31.084Z,3.38
2024-01-04T10:11:07.620Z,3.20
2024-01-04T10:13:36.792Z,3.00
2024-01-04T10:16:07.160Z,2.70
2024-01-04T10:18:37.208Z,3.03
2024-01-04T10:21:06.485Z,5.15
2024-01-04T10:23:33.926Z,4.00
2024-01-04T10:26:12.025Z,3.53
2024-01-04T10:28:41.208Z,3.65
2024-01-04T10:31:12.738Z,1.80
2024-01-04T10:33:42.057Z,4.05
2024-01-04T10:36:13.222Z,2.22
2024-01-04T10:38:41.034Z,3.00
2024-01-04T10:41:08.154Z,3.03
2024-01-04T10:43:35.862Z,2.08
2024-01-04T10:46:06.907Z,8.13
2024-01-04T10:48:34.204Z,4.50
2024-01-04T10:51:07.619Z,5.70
2024-01-04T10:53:39.465Z,2.67
2024-01-04T10:56:08.433Z,3.45
2024-01-04T10:58:41.812Z,5.15
2024-01-04T11:01:11.075Z,5.45
2024-01-04T11:03:39.425Z,4.05
2024-01-04T11:06:06.729Z,6.70
2024-01-04T11:08:34.827Z,5.45
2024-01-04T11:11:03.596Z,3.75
2024-01-04T11:13:30.980Z,7.85
2024-01-04T11:16:01.207Z,8.88
2024-01-04T11:18:28.427Z,4.72
2024-01-04T11:21:26.599Z,5.22
2024-01-04T11:23:56.859Z,10.50
2024-01-04T11:26:32.152Z,6.00
2024-01-04T11:29:01.364Z,5.32
2024-01-04T11:31:28.641Z,7.40
2024-01-04T11:33:56.615Z,5.53
2024-01-04T11:36:25.088Z,4.43
2024-01-04T11:38:52.489Z,5.85
2024-01-04T11:41:19.731Z,5.13
2024-01-04T11:43:48.165Z,2.80
2024-01-04T11:46:28.088Z,2.72
2024-01-04T11:48:57.539Z,1.77
2024-01-04T11:51:46.659Z,2.05
2024-01-04T11:54:16.334Z,4.55
2024-01-04T11:56:43.736Z,4.53
2024-01-04T11:59:20.843Z,2.55
2024-01-04T12:01:48.097Z,3.92
2024-01-04T12:04:16.832Z,2.17
2024-01-04T12:06:46.092Z,1.52
2024-01-04T12:09:18.109Z,2.83
2024-01-04T12:11:54.711Z,3.03
2024-01-04T12:14:22.304Z,2.05
2024-01-04T12:16:49.361Z,1.48
2024-01-04T12:19:16.697Z,1.70
2024-01-04T12:21:43.994Z,3.78
2024-01-04T12:24:11.214Z,2.28
2024-01-04T12:26:38.688Z,2.63
2024-01-04T12:29:07.280Z,4.35
2024-01-04T12:31:36.431Z,2.33
2024-01-04T12:34:03.910Z,5.32
2024-01-04T12:36:32.361Z,2.70
2024-01-04T12:39:11.523Z,3.38
2024-01-04T12:41:40.065Z,6.75
2024-01-04T12:44:09.241Z,3.35
2024-01-04T12:46:37.120Z,3.20
2024-01-04T12:49:12.622Z,4.70
2024-01-04T12:51:42.714Z,3.15
2024-01-04T12:54:12.034Z,6.07
2024-01-04T12:56:39.927Z,2.55
2024-01-04T12:59:07.548Z,5.30
2024-01-04T13:01:35.599Z,4.68
2024-01-04T13:04:03.072Z,5.78
2024-01-04T13:06:31.197Z,6.15
2024-01-04T13:08:58.573Z,5.57
2024-01-04T13:11:26.258Z,4.68
2024-01-04T13:13:53.582Z,3.97
2024-01-04T13:16:20.799Z,2.85
2024-01-04T13:18:48.171Z,3.63
2024-01-04T13:21:15.594Z,2.55
2024-01-04T13:23:42.871Z,3.08
2024-01-04T13:26:13.011Z,3.53
2024-01-04T13:28:40.297Z,4.82
2024-01-04T13:31:09.508Z,4.63
2024-01-04T13:33:36.966Z,2.65
2024-01-04T13:36:04.753Z,2.72
2024-01-04T13:38:32.018Z,2.45
2024-01-04T13:40:59.067Z,2.78
2024-01-04T13:43:26.175Z,2.70
2024-01-04T13:45:53.929Z,3.45
2024-01-04T13:48:21.660Z,1.75
2024-01-04T13:50:48.920Z,1.70
2024-01-04T13:53:17.623Z,5.28
2024-01-04T13:55:44.870Z,1.52
2024-01-04T13:58:12.017Z,2.75
2024-01-04T14:00:39.889Z,1.67
2024-01-04T14:03:07.185Z,1.40
2024-01-04T14:05:36.683Z,3.45
2024-01-04T14:08:07.648Z,2.47
2024-01-04T14:10:35.999Z,3.30
2024-01-04T14:13:03.301Z,0.98
2024-01-04T14:15:30.441Z,2.58
2024-01-04T14:17:57.822Z,2.50
2024-01-04T14:20:27.805Z,4.45
2024-01-04T14:22:55.312Z,6.32
2024-01-04T14:25:22.720Z,9.63
2024-01-04T14:27:51.853Z,6.15
2024-01-04T14:30:19.290Z,3.13
2024-01-04T14:32:46.888Z,5.93
2024-01-04T14:35:14.996Z,5.88
2024-01-04T14:37:42.536Z,5.25
2024-01-04T14:40:18.378Z,4.97
2024-01-04T14:42:46.479Z,6.22
2024-01-04T14:45:18.174Z,4.22
2024-01-04T14:47:49.397Z,3.08
2024-01-04T14:50:17.937Z,10.93
2024-01-04T14:52:45.049Z,9.15
2024-01-04T14:55:14.121Z,5.82
2024-01-04T14:57:42.639Z,8.98
2024-01-04T15:00:12.290Z,8.30
2024-01-04T15:02:40.239Z,9.00
2024-01-04T15:05:19.787Z,10.85
2024-01-04T15:07:47.902Z,11.02
2024-01-04T15:10:15.098Z,10.65
2024-01-04T15:12:42.321Z,6.57
2024-01-04T15:15:17.049Z,6.20
2024-01-04T15:17:51.174Z,10.90
2024-01-04T15:20:18.959Z,15.18
2024-01-04T15:22:46.164Z,9.55
2024-01-04T15:25:13.337Z,14.35
2024-01-04T15:27:40.490Z,11.68
2024-01-04T15:30:08.395Z,15.40
2024-01-04T15:32:35.562Z,11.57
2024-01-04T15:35:02.731Z,15.15
2024-01-04T15:37:32.844Z,12.05
2024-01-04T15:40:00.386Z,13.77
2024-01-04T15:42:27.628Z,11.50
2024-01-04T15:44:54.767Z,12.50
2024-01-04T15:47:22.527Z,6.80
2024-01-04T15:49:50.070Z,14.52
2024-01-04T15:52:17.179Z,8.52
2024-01-04T15:54:44.354Z,9.93
2024-01-04T15:57:12.156Z,14.25
2024-01-04T15:59:39.480Z,9.10
2024-01-04T16:02:07.242Z,10.55
2024-01-04T16:04:34.897Z,11.27
2024-01-04T16:07:02.234Z,13.15
2024-01-04T16:09:31.158Z,15.30
2024-01-04T16:11:58.567Z,5.93
2024-01-04T16:14:25.824Z,13.88
2024-01-04T16:16:53.111Z,15.77
2024-01-04T16:19:20.246Z,13.18
2024-01-04T16:21:47.792Z,10.65
2024-01-04T16:24:14.959Z,10.45
2024-01-04T16:26:42.144Z,15.05
2024-01-04T16:29:09.430Z,10.15
2024-01-04T16:31:37.766Z,10.68
2024-01-04T16:34:05.202Z,11.23
2024-01-04T16:36:32.642Z,12.88
2024-01-04T16:38:59.845Z,12.98
2024-01-04T16:41:27.510Z,12.65
2024-01-04T16:43:56.288Z,10.35
2024-01-04T16:46:24.332Z,17.42
2024-01-04T16:48:51.657Z,10.20
2024-01-04T16:51:18.928Z,13.27
2024-01-04T16:53:46.199Z,12.13
2024-01-04T16:56:16.145Z,14.38
2024-01-04T16:58:44.985Z,15.65
2024-01-04T17:01:12.872Z,17.38
2024-01-04T17:04:02.078Z,11.73
2024-01-04T17:06:30.421Z,16.48
2024-01-04T17:08:57.760Z,11.32
2024-01-04T17:11:25.286Z,12.60
2024-01-04T17:13:52.549Z,14.00
2024-01-04T17:16:23.172Z,23.38
2024-01-04T17:18:51.087Z,18.50
2024-01-04T17:21:18.450Z,13.82
2024-01-04T17:23:45.604Z,17.80
2024-01-04T17:26:12.719Z,15.60
2024-01-04T17:28:44.291Z,13.48
2024-01-04T17:31:11.972Z,10.07
2024-01-04T17:33:39.453Z,20.00
2024-01-04T17:36:21.769Z,19.45
2024-01-04T17:38:54.009Z,20.33
2024-01-04T17:41:21.237Z,20.58
2024-01-04T17:43:48.722Z,14.80
2024-01-04T17:46:16.493Z,15.10
2024-01-04T17:48:43.774Z,10.43
2024-01-04T17:51:11.161Z,11.40
2024-01-04T17:53:39.238Z,14.70
2024-01-04T17:56:06.719Z,13.35
2024-01-04T17:58:33.922Z,18.67
2024-01-04T18:01:01.091Z,11.50
2024-01-04T18:03:32.059Z,18.15
2024-01-04T18:06:19.304Z,20.38
2024-01-04T18:08:49.066Z,15.75
2024-01-04T18:11:18.236Z,19.85
2024-01-04T18:13:45.424Z,21.00
2024-01-04T18:16:12.527Z,16.60
2024-01-04T18:18:39.880Z,16.75
2024-01-04T18:21:07.089Z,20.73
2024-01-04T18:23:36.549Z,14.65
2024-01-04T18:26:07.060Z,17.40
2024-01-04T18:28:34.225Z,26.33
2024-01-04T18:31:01.371Z,19.23
2024-01-04T18:33:30.402Z,25.48
2024-01-04T18:35:57.623Z,20.88
2024-01-04T18:38:25.103Z,22.83
2024-01-04T18:40:53.063Z,22.55
2024-01-04T18:43:20.180Z,26.50
2024-01-04T18:45:47.293Z,19.35
2024-01-04T18:48:15.098Z,18.65
2024-01-04T18:50:42.399Z,25.85
2024-01-04T18:53:09.484Z,18.85
2024-01-04T18:55:36.775Z,24.02
2024-01-04T18:58:05.898Z,25.17
2024-01-04T19:00:33.289Z,25.05
2024-01-04T19:03:14.005Z,20.70
2024-01-04T19:05:41.981Z,20.25
2024-01-04T19:08:09.372Z,16.58
2024-01-04T19:10:36.533Z,24.25
2024-01-04T19:13:04.139Z,22.20
2024-01-04T19:15:39.075Z,20.85
2024-01-04T19:18:18.715Z,24.23
2024-01-04T19:20:45.942Z,24.10
2024-01-04T19:23:13.112Z,16.85
2024-01-04T19:25:40.237Z,20.42
2024-01-04T19:28:07.714Z,22.38
2024-01-04T19:30:35.442Z,18.77
2024-01-04T19:33:02.861Z,20.88
2024-01-04T19:35:30.009Z,19.55
2024-01-04T19:37:57.089Z,15.75
2024-01-04T19:40:24.234Z,16.77
2024-01-04T19:42:51.414Z,23.55
2024-01-04T19:45:20.398Z,28.15
2024-01-04T19:47:47.773Z,22.55
2024-01-04T19:50:14.986Z,23.38
2024-01-04T19:52:42.175Z,17.60
2024-01-04T19:55:14.013Z,21.95
2024-01-04T19:57:42.209Z,17.73
2024-01-04T20:00:12.314Z,14.00
2024-01-04T20:02:43.616Z,21.60
2024-01-04T20:05:11.077Z,17.02
2024-01-04T20:07:38.639Z,30.70
2024-01-04T20:10:07.926Z,23.95
2024-01-04T20:12:41.914Z,12.65
2024-01-04T20:15:09.449Z,13.18
2024-01-04T20:17:53.441Z,18.70
2024-01-04T20:20:20.790Z,20.38
2024-01-04T20:22:48.284Z,17.02
2024-01-04T20:25:15.985Z,14.05
2024-01-04T20:27:43.379Z,19.40
2024-01-04T20:30:11.271Z,21.75
2024-01-04T20:32:47.267Z,18.02
2024-01-04T20:35:15.090Z,15.98
2024-01-04T20:37:42.169Z,17.50
2024-01-04T20:40:09.693Z,18.17
2024-01-04T20:42:39.835Z,20.73
2024-01-04T20:45:07.574Z,15.32
2024-01-04T20:47:37.499Z,19.83
2024-01-04T20:50:05.145Z,18.25
2024-01-04T20:52:32.341Z,22.85
2024-01-04T20:54:59.444Z,14.88
2024-01-04T20:57:26.679Z,15.27
2024-01-04T20:59:53.942Z,15.40
2024-01-04T21:02:21.108Z,29.05
2024-01-04T21:04:48.248Z,20.88
2024-01-04T21:07:15.555Z,16.42
2024-01-04T21:09:42.719Z,18.75
2024-01-04T21:12:10.001Z,20.73
2024-01-04T21:14:37.289Z,25.15
2024-01-04T21:17:04.927Z,20.75
2024-01-04T21:19:33.711Z,26.13
2024-01-04T21:22:00.878Z,22.30
2024-01-04T21:24:28.045Z,17.17
2024-01-04T21:26:57.275Z,18.30
2024-01-04T21:29:24.579Z,17.48
2024-01-04T21:31:51.638Z,19.05
2024-01-04T21:34:18.874Z,17.52
2024-01-04T21:36:46.738Z,17.27
2024-01-04T21:39:15.318Z,12.57
2024-01-04T21:41:44.639Z,10.82
2024-01-04T21:44:12.498Z,14.07
2024-01-04T21:46:39.713Z,17.40
2024-01-04T21:49:07.225Z,17.20
2024-01-04T21:51:34.601Z,14.88
2024-01-04T21:54:01.794Z,19.08
2024-01-04T21:56:31.775Z,27.77
2024-01-04T21:59:18.803Z,10.30
2024-01-04T22:01:57.315Z,17.02
2024-01-04T22:04:24.573Z,18.98
2024-01-04T22:06:53.172Z,11.75
2024-01-04T22:09:20.308Z,14.57
2024-01-04T22:11:48.837Z,11.40
2024-01-04T22:14:16.003Z,16.88
2024-01-04T22:16:43.450Z,19.95
2024-01-04T22:19:13.614Z,16.05
2024-01-04T22:21:41.374Z,19.08
2024-01-04T22:24:08.840Z,18.27
2024-01-04T22:26:36.079Z,13.55
2024-01-04T22:29:03.335Z,11.70
2024-01-04T22:31:30.592Z,11.32
2024-01-04T22:33:57.894Z,14.18
2024-01-04T22:36:25.178Z,9.40
2024-01-04T22:38:52.332Z,18.67
2024-01-04T22:41:19.460Z,12.85
2024-01-04T22:43:46.640Z,17.27
2024-01-04T22:46:14.009Z,15.27
2024-01-04T22:48:41.162Z,11.48
2024-01-04T22:51:08.591Z,18.50
2024-01-04T22:53:35.748Z,16.05
2024-01-04T22:56:02.990Z,10.98
2024-01-04T22:58:30.231Z,20.05
2024-01-04T23:00:57.463Z,15.73
2024-01-04T23:03:24.806Z,16.45
2024-01-04T23:05:52.173Z,12.57
2024-01-04T23:08:19.468Z,13.63
2024-01-04T23:10:46.640Z,15.77
2024-01-04T23:13:13.786Z,16.48
2024-01-04T23:15:40.967Z,18.08
2024-01-04T23:18:12.394Z,15.05
2024-01-04T23:20:39.534Z,20.15
2024-01-04T23:23:07.189Z,21.27
2024-01-04T23:25:34.337Z,13.75
2024-01-04T23:28:01.458Z,15.57
2024-01-04T23:30:34.305Z,17.25
2024-01-04T23:33:02.747Z,27.58
2024-01-04T23:35:29.955Z,17.50
2024-01-04T23:37:57.218Z,10.98
2024-01-04T23:40:24.341Z,9.23
2024-01-04T23:42:51.604Z,23.17
2024-01-04T23:45:18.925Z,15.50
2024-01-04T23:47:50.125Z,17.70
2024-01-04T23:50:17.426Z,15.63
2024-01-04T23:52:44.513Z,15.00
2024-01-04T23:55:11.857Z,16.55
2024-01-04T23:57:39.016Z,13.15
